Time;durP1;ratioP1;P1;durP2;ratioP2;P2;SDS_P1;SDS_P2;PMS_P1;PMS_P2;Temp;Humidity;BMP_temperature;BMP_pressure;BME280_temperature;BME280_humidity;BME280_pressure;Samples;Min_cycle;Max_cycle;Signal;HPM_P1;HPM_P2
2022/08/16 00:00:10;;;;;;;8.75;7.55;;;20.90;99.90;;;;;;7336753;19;110130;-79
2022/08/16 00:02:49;;;;;;;7.78;6.93;;;20.90;99.90;;;;;;7337197;19;110772;-79
2022/08/16 00:05:18;;;;;;;9.48;7.40;;;20.90;99.90;;;;;;7337235;19;114305;-79
2022/08/16 00:07:46;;;;;;;9.77;7.47;;;20.90;99.90;;;;;;7334062;19;110262;-79
2022/08/16 00:10:14;;;;;;;10.07;7.55;;;20.90;99.90;;;;;;7341325;19;110355;-80
2022/08/16 00:12:47;;;;;;;11.93;7.60;;;20.90;99.90;;;;;;7335124;19;110681;-79
2022/08/16 00:15:22;;;;;;;10.20;8.00;;;20.90;99.90;;;;;;7336389;19;110744;-79
2022/08/16 00:17:50;;;;;;;11.13;7.85;;;20.90;99.90;;;;;;7335519;19;111569;-79
2022/08/16 00:20:23;;;;;;;11.43;8.85;;;20.80;99.90;;;;;;7335834;19;109474;-80
2022/08/16 00:22:51;;;;;;;9.55;8.65;;;20.80;99.90;;;;;;7337114;19;113416;-79
2022/08/16 00:25:22;;;;;;;14.02;8.50;;;20.70;99.90;;;;;;7334297;19;111823;-79
2022/08/16 00:28:09;;;;;;;10.77;9.55;;;20.60;99.90;;;;;;7336776;19;110762;-79
2022/08/16 00:30:37;;;;;;;9.77;8.88;;;20.50;99.90;;;;;;7334134;19;111225;-79
2022/08/16 00:33:05;;;;;;;11.63;8.75;;;20.60;99.90;;;;;;7338092;19;111794;-80
2022/08/16 00:35:36;;;;;;;10.07;9.07;;;20.60;99.90;;;;;;7335183;19;111651;-80
2022/08/16 00:38:04;;;;;;;16.17;9.57;;;20.60;99.90;;;;;;7336261;19;110621;-80
2022/08/16 00:40:53;;;;;;;17.23;9.20;;;20.60;99.90;;;;;;7335127;19;112196;-79
2022/08/16 00:43:34;;;;;;;10.13;9.23;;;20.70;99.90;;;;;;7336135;19;109536;-80
2022/08/16 00:46:31;;;;;;;11.63;9.38;;;20.60;99.90;;;;;;7336061;19;110883;-79
2022/08/16 00:49:05;;;;;;;12.35;9.45;;;20.60;99.90;;;;;;7335133;19;109685;-79
2022/08/16 00:51:47;;;;;;;10.40;9.40;;;20.50;99.90;;;;;;7334791;19;110201;-79
2022/08/16 00:54:23;;;;;;;13.85;9.20;;;20.50;99.90;;;;;;7335705;19;111527;-79
2022/08/16 00:56:50;;;;;;;10.63;9.38;;;20.40;99.90;;;;;;7339578;19;109312;-78
2022/08/16 00:59:27;;;;;;;10.75;9.70;;;20.50;99.90;;;;;;7333890;19;110259;-79
2022/08/16 01:01:55;;;;;;;14.38;8.90;;;20.50;99.90;;;;;;7333757;19;109575;-79
2022/08/16 01:04:26;;;;;;;10.25;9.02;;;20.50;99.90;;;;;;7335160;19;110183;-79
2022/08/16 01:06:58;;;;;;;11.73;10.00;;;20.50;99.90;;;;;;7335853;19;111470;-79
2022/08/16 01:09:31;;;;;;;12.80;9.70;;;20.40;99.90;;;;;;7331774;19;110435;-79
2022/08/16 01:12:02;;;;;;;13.30;9.85;;;20.30;99.90;;;;;;7330431;19;109769;-80
2022/08/16 01:14:42;;;;;;;11.18;8.90;;;20.30;99.90;;;;;;7334677;19;111143;-79
2022/08/16 01:17:12;;;;;;;14.25;9.07;;;20.30;99.90;;;;;;7335908;19;109846;-80
2022/08/16 01:19:45;;;;;;;14.75;9.98;;;20.20;99.90;;;;;;7341859;19;110713;-79
2022/08/16 01:22:32;;;;;;;15.80;9.80;;;20.20;99.90;;;;;;7332642;19;111942;-80
2022/08/16 01:25:31;;;;;;;11.98;8.90;;;20.20;99.90;;;;;;7336061;19;110466;-81
2022/08/16 01:28:06;;;;;;;11.52;9.02;;;20.10;99.90;;;;;;7332946;19;110985;-81
2022/08/16 01:30:38;;;;;;;13.55;8.98;;;20.10;99.90;;;;;;7336618;19;110652;-80
2022/08/16 01:33:17;;;;;;;14.73;9.32;;;20.00;99.90;;;;;;7334895;19;111074;-81
2022/08/16 01:36:04;;;;;;;12.43;10.52;;;19.80;99.90;;;;;;7335817;19;110857;-80
2022/08/16 01:38:42;;;;;;;13.35;9.50;;;19.80;99.90;;;;;;7332478;19;110689;-82
2022/08/16 01:41:26;;;;;;;13.38;9.07;;;19.70;99.90;;;;;;7334307;19;110504;-81
2022/08/16 01:43:56;;;;;;;9.73;8.73;;;19.60;99.90;;;;;;7340504;19;110306;-82
2022/08/16 01:46:33;;;;;;;10.90;8.93;;;19.70;99.90;;;;;;7335412;19;110138;-80
2022/08/16 01:49:10;;;;;;;9.57;8.55;;;19.70;99.90;;;;;;7334833;19;110158;-80
2022/08/16 01:51:40;;;;;;;11.20;9.35;;;19.80;99.90;;;;;;7333576;19;109927;-79
2022/08/16 01:54:09;;;;;;;10.23;9.32;;;19.80;99.90;;;;;;7333662;19;110855;-80
2022/08/16 01:56:41;;;;;;;10.25;9.00;;;19.80;99.90;;;;;;7334308;19;111411;-80
2022/08/16 01:59:12;;;;;;;12.60;8.95;;;19.80;99.90;;;;;;7335214;19;110214;-79
2022/08/16 02:01:45;;;;;;;12.57;9.82;;;19.80;99.90;;;;;;7331833;19;110612;-80
2022/08/16 02:04:16;;;;;;;11.25;8.73;;;19.80;99.90;;;;;;7340118;19;113673;-80
2022/08/16 02:07:07;;;;;;;11.82;8.88;;;19.80;99.90;;;;;;7334789;19;112056;-80
2022/08/16 02:09:38;;;;;;;9.50;8.70;;;19.80;99.90;;;;;;7335264;19;111551;-80
2022/08/16 02:12:07;;;;;;;9.82;8.85;;;19.80;99.90;;;;;;7333856;19;109719;-80
2022/08/16 02:14:55;;;;;;;14.13;9.20;;;19.70;99.90;;;;;;7332984;19;112625;-80
2022/08/16 02:17:25;;;;;;;11.32;9.52;;;19.70;99.90;;;;;;7333331;19;111609;-80
2022/08/16 02:19:54;;;;;;;11.43;9.50;;;19.70;99.90;;;;;;7334671;19;109617;-80
2022/08/16 02:22:27;;;;;;;12.68;9.40;;;19.60;99.90;;;;;;7335440;19;110853;-80
2022/08/16 02:25:12;;;;;;;9.88;8.98;;;19.60;99.90;;;;;;7340321;19;111765;-80
2022/08/16 02:27:43;;;;;;;11.40;9.10;;;19.60;99.90;;;;;;7343254;19;110208;-80
2022/08/16 02:30:16;;;;;;;13.85;9.45;;;19.60;99.90;;;;;;7339235;19;110170;-80
2022/08/16 02:33:04;;;;;;;11.40;8.82;;;19.60;99.90;;;;;;7339396;19;110725;-80
2022/08/16 02:35:32;;;;;;;14.00;9.80;;;19.50;99.90;;;;;;7340607;19;110462;-79
2022/08/16 02:38:19;;;;;;;12.07;9.52;;;19.50;99.90;;;;;;7337216;19;111168;-79
2022/08/16 02:40:47;;;;;;;13.93;8.82;;;19.40;99.90;;;;;;7340950;19;110984;-79
2022/08/16 02:43:15;;;;;;;10.77;8.55;;;19.40;99.90;;;;;;7338213;19;110374;-79
2022/08/16 02:45:42;;;;;;;11.70;9.60;;;19.50;99.90;;;;;;7338946;19;110128;-79
2022/08/16 02:48:09;;;;;;;11.40;9.00;;;19.50;99.90;;;;;;7339598;19;109466;-80
2022/08/16 02:51:01;;;;;;;11.00;9.07;;;19.50;99.90;;;;;;7346176;19;111417;-80
2022/08/16 02:53:42;;;;;;;11.63;9.82;;;19.50;99.90;;;;;;7338350;19;110564;-80
2022/08/16 02:56:15;;;;;;;13.30;10.52;;;19.50;99.90;;;;;;7338619;19;110577;-79
2022/08/16 02:58:48;;;;;;;12.13;9.32;;;19.50;99.90;;;;;;7336382;19;111868;-80
2022/08/16 03:01:21;;;;;;;16.00;10.10;;;19.50;99.90;;;;;;7336294;19;111514;-80
2022/08/16 03:04:02;;;;;;;11.90;10.10;;;19.50;99.90;;;;;;7337352;19;111760;-80
2022/08/16 03:06:50;;;;;;;13.82;10.95;;;19.50;99.90;;;;;;7336660;19;113398;-80
2022/08/16 03:09:23;;;;;;;14.63;10.95;;;19.50;99.90;;;;;;7339562;19;111441;-79
2022/08/16 03:11:50;;;;;;;13.68;12.05;;;19.50;99.90;;;;;;7340299;19;114318;-79
2022/08/16 03:14:17;;;;;;;15.25;11.40;;;19.60;99.90;;;;;;7342005;19;110788;-80
2022/08/16 03:16:51;;;;;;;13.85;12.43;;;19.60;99.90;;;;;;7339139;19;111695;-79
2022/08/16 03:19:29;;;;;;;12.35;11.15;;;19.50;99.90;;;;;;7338670;19;110927;-80
2022/08/16 03:22:17;;;;;;;15.65;13.23;;;19.50;99.90;;;;;;7340246;19;112701;-79
2022/08/16 03:24:55;;;;;;;17.63;11.85;;;19.40;99.90;;;;;;7340818;19;111897;-80
2022/08/16 03:27:23;;;;;;;18.85;12.75;;;19.40;99.90;;;;;;7339248;19;110003;-79
2022/08/16 03:29:56;;;;;;;14.85;12.15;;;19.30;99.90;;;;;;7339378;19;112279;-80
2022/08/16 03:32:23;;;;;;;13.32;11.95;;;19.30;99.90;;;;;;7336610;19;110687;-80
2022/08/16 03:34:51;;;;;;;14.90;13.35;;;19.30;99.90;;;;;;7330091;19;111292;-80
2022/08/16 03:37:18;;;;;;;17.80;13.20;;;19.30;99.90;;;;;;7341481;19;111406;-78
2022/08/16 03:39:46;;;;;;;14.82;11.77;;;19.20;99.90;;;;;;7328520;19;111210;-79
2022/08/16 03:42:21;;;;;;;18.88;12.60;;;19.20;99.90;;;;;;7329972;19;111463;-79
2022/08/16 03:44:49;;;;;;;16.05;11.80;;;19.10;99.90;;;;;;7331725;19;110650;-78
2022/08/16 03:47:17;;;;;;;17.20;12.30;;;19.20;99.90;;;;;;7329620;19;111018;-78
2022/08/16 03:49:49;;;;;;;15.65;13.15;;;19.20;99.90;;;;;;7331167;19;110399;-79
2022/08/16 03:52:19;;;;;;;19.70;12.57;;;19.20;99.90;;;;;;7331952;19;110852;-79
2022/08/16 03:54:50;;;;;;;13.32;11.70;;;19.20;99.90;;;;;;7333288;19;111557;-79
2022/08/16 03:57:24;;;;;;;12.82;11.40;;;19.20;99.90;;;;;;7336432;19;111535;-79
2022/08/16 04:00:14;;;;;;;12.63;11.27;;;19.20;99.90;;;;;;7340527;19;111886;-78
2022/08/16 04:03:06;;;;;;;13.15;11.82;;;19.30;99.90;;;;;;7335434;19;112684;-79
2022/08/16 04:05:37;;;;;;;14.52;13.02;;;19.30;99.90;;;;;;7335858;19;110852;-79
2022/08/16 04:08:05;;;;;;;13.32;11.98;;;19.30;99.90;;;;;;7335138;19;111793;-79
2022/08/16 04:10:52;;;;;;;13.77;11.35;;;19.30;99.90;;;;;;7337260;19;112272;-79
2022/08/16 04:13:20;;;;;;;14.48;12.57;;;19.20;99.90;;;;;;7335698;19;111959;-79
2022/08/16 04:16:07;;;;;;;;;;;19.20;99.90;;;;;;7335828;19;112726;-78
2022/08/16 04:18:53;;;;;;;13.52;11.93;;;19.20;99.90;;;;;;7340872;19;111648;-79
2022/08/16 04:21:29;;;;;;;15.02;12.27;;;19.10;99.90;;;;;;7338805;19;111836;-79
2022/08/16 04:23:58;;;;;;;13.93;10.98;;;19.10;99.90;;;;;;7336407;19;111308;-79
2022/08/16 04:26:26;;;;;;;14.82;11.75;;;19.10;99.90;;;;;;7335009;19;111892;-79
2022/08/16 04:28:57;;;;;;;13.68;11.50;;;19.00;99.90;;;;;;7334127;19;110441;-79
2022/08/16 04:31:45;;;;;;;17.83;11.15;;;18.90;99.90;;;;;;7333986;19;110560;-79
2022/08/16 04:34:24;;;;;;;14.20;12.80;;;18.90;99.90;;;;;;7333923;19;111630;-78
2022/08/16 04:36:52;;;;;;;12.57;10.93;;;18.90;99.90;;;;;;7335292;19;111250;-78
2022/08/16 04:39:19;;;;;;;12.18;10.98;;;18.90;99.90;;;;;;7336207;19;112391;-79
2022/08/16 04:41:50;;;;;;;16.52;11.68;;;19.00;99.90;;;;;;7331993;19;112718;-79
2022/08/16 04:44:23;;;;;;;15.18;11.57;;;19.00;99.90;;;;;;7341090;19;112134;-79
2022/08/16 04:47:14;;;;;;;14.05;11.93;;;18.90;99.90;;;;;;7335493;19;114488;-78
2022/08/16 04:49:52;;;;;;;13.52;11.52;;;18.80;99.90;;;;;;7335197;19;110491;-78
2022/08/16 04:52:22;;;;;;;17.63;10.85;;;18.70;99.90;;;;;;7334137;19;110532;-79
2022/08/16 04:55:09;;;;;;;13.60;12.18;;;18.70;99.90;;;;;;7332491;19;113048;-79
2022/08/16 04:57:41;;;;;;;13.85;12.40;;;18.70;99.90;;;;;;7333888;19;111257;-79
2022/08/16 05:00:13;;;;;;;12.63;11.45;;;18.70;99.90;;;;;;7333631;19;111431;-79
2022/08/16 05:03:04;;;;;;;12.57;10.70;;;18.80;99.90;;;;;;7332798;19;110935;-78
2022/08/16 05:05:37;;;;;;;11.98;10.77;;;18.80;99.90;;;;;;7334905;19;110443;-78
2022/08/16 05:08:21;;;;;;;14.77;10.23;;;18.80;99.90;;;;;;7340125;19;111520;-78
2022/08/16 05:11:02;;;;;;;15.05;11.88;;;18.80;99.90;;;;;;7332622;19;110746;-78
2022/08/16 05:13:33;;;;;;;16.05;12.10;;;18.90;99.90;;;;;;7331088;19;110637;-71
2022/08/16 05:16:23;;;;;;;11.97;10.87;;;18.90;99.90;;;;;;7334549;19;111880;-71
2022/08/16 05:18:56;;;;;;;13.18;11.27;;;18.90;99.90;;;;;;7333486;19;112739;-71
2022/08/16 05:21:25;;;;;;;12.30;11.13;;;19.00;99.90;;;;;;7334879;19;112998;-71
2022/08/16 05:23:54;;;;;;;14.43;11.23;;;18.90;99.90;;;;;;7332306;19;111029;-71
2022/08/16 05:26:29;;;;;;;11.80;10.65;;;19.00;99.90;;;;;;7333852;19;111680;-71
2022/08/16 05:28:58;;;;;;;12.80;11.30;;;19.00;99.90;;;;;;7332821;19;111741;-71
2022/08/16 05:31:29;;;;;;;14.57;10.82;;;19.10;99.90;;;;;;7339711;19;111765;-71
2022/08/16 05:34:00;;;;;;;10.85;9.80;;;19.10;99.90;;;;;;7333114;19;111406;-71
2022/08/16 05:36:30;;;;;;;18.70;10.07;;;19.20;99.90;;;;;;7336813;19;110881;-71
2022/08/16 05:39:07;;;;;;;15.40;11.70;;;19.30;99.90;;;;;;7333900;19;110822;-71
2022/08/16 05:41:36;;;;;;;13.38;11.23;;;19.40;99.90;;;;;;7332951;19;112010;-72
2022/08/16 05:44:13;;;;;;;13.02;10.65;;;19.50;99.90;;;;;;7332597;19;111292;-71
2022/08/16 05:46:58;;;;;;;11.70;10.45;;;19.50;99.90;;;;;;7329857;19;112662;-71
2022/08/16 05:49:28;;;;;;;12.90;10.30;;;19.60;99.90;;;;;;7334447;19;112788;-71
2022/08/16 05:52:07;;;;;;;15.20;10.57;;;19.60;99.90;;;;;;7331338;19;114775;-71
2022/08/16 05:54:40;;;;;;;11.00;9.88;;;19.60;99.90;;;;;;7337848;19;111546;-71
2022/08/16 05:57:14;;;;;;;10.73;9.63;;;19.70;99.90;;;;;;7338324;19;110384;-71
2022/08/16 05:59:42;;;;;;;11.98;10.82;;;19.80;99.90;;;;;;7349662;19;111035;-71
2022/08/16 06:02:10;;;;;;;12.80;9.65;;;20.00;99.90;;;;;;7348190;19;113876;-71
2022/08/16 06:04:37;;;;;;;13.70;9.80;;;20.10;99.90;;;;;;7350371;19;110738;-71
2022/08/16 06:07:11;;;;;;;13.50;9.98;;;20.20;99.90;;;;;;7349926;19;111161;-71
2022/08/16 06:09:57;;;;;;;10.70;9.65;;;20.30;99.90;;;;;;7345507;19;111240;-70
2022/08/16 06:12:27;;;;;;;13.75;9.80;;;20.40;99.90;;;;;;7345136;19;109845;-71
2022/08/16 06:15:00;;;;;;;16.23;10.63;;;20.50;99.90;;;;;;7343948;19;111727;-72
2022/08/16 06:17:30;;;;;;;15.38;10.82;;;20.70;99.90;;;;;;7347638;19;110610;-72
2022/08/16 06:20:22;;;;;;;12.07;10.93;;;20.70;99.90;;;;;;7346886;19;110844;-72
2022/08/16 06:23:01;;;;;;;11.77;10.38;;;20.90;99.90;;;;;;7344101;19;111955;-72
2022/08/16 06:25:37;;;;;;;14.10;10.00;;;20.90;99.90;;;;;;7343902;19;112843;-72
2022/08/16 06:28:10;;;;;;;12.20;10.13;;;20.90;99.90;;;;;;7344172;19;111150;-72
2022/08/16 06:30:57;;;;;;;15.00;10.30;;;21.00;99.90;;;;;;7341486;19;114084;-72
2022/08/16 06:33:27;;;;;;;14.15;11.23;;;21.10;99.90;;;;;;7344585;19;111784;-72
2022/08/16 06:36:08;;;;;;;15.70;11.05;;;21.10;99.90;;;;;;7341511;19;111117;-71
2022/08/16 06:38:35;;;;;;;15.25;11.90;;;21.20;99.90;;;;;;7349778;19;114413;-72
2022/08/16 06:41:13;;;;;;;15.23;11.98;;;21.30;99.90;;;;;;7341361;19;111642;-72
2022/08/16 06:43:40;;;;;;;;;;;21.40;99.90;;;;;;7345560;19;112134;-72
2022/08/16 06:46:33;;;;;;;13.40;11.57;;;21.40;99.90;;;;;;7349402;19;110661;-71
2022/08/16 06:49:00;;;;;;;13.95;12.38;;;21.50;99.90;;;;;;7339893;19;111809;-72
2022/08/16 06:51:32;;;;;;;21.08;12.73;;;21.60;99.90;;;;;;7345497;19;112336;-72
2022/08/16 06:54:15;;;;;;;14.15;12.60;;;21.70;99.90;;;;;;7334689;19;113716;-72
2022/08/16 06:56:47;;;;;;;14.68;12.60;;;21.90;99.90;;;;;;7340393;19;110180;-72
2022/08/16 06:59:21;;;;;;;13.63;12.17;;;22.00;99.90;;;;;;7343983;19;110412;-72
2022/08/16 07:01:51;;;;;;;15.93;12.50;;;22.00;99.90;;;;;;7347126;19;112340;-72
2022/08/16 07:04:21;;;;;;;15.55;12.32;;;22.20;99.90;;;;;;7342869;19;113263;-72
2022/08/16 07:07:02;;;;;;;13.85;12.18;;;22.20;99.90;;;;;;7343013;19;111791;-72
2022/08/16 07:09:42;;;;;;;24.20;12.88;;;22.30;99.90;;;;;;7333202;19;110661;-72
2022/08/16 07:12:09;;;;;;;15.98;12.25;;;22.40;99.90;;;;;;7332789;19;112917;-72
2022/08/16 07:14:36;;;;;;;13.60;11.60;;;22.50;99.90;;;;;;7332583;19;115856;-72
2022/08/16 07:17:06;;;;;;;21.70;12.18;;;22.60;99.90;;;;;;7334686;19;112389;-71
2022/08/16 07:19:34;;;;;;;17.48;11.75;;;22.70;99.90;;;;;;7334720;19;111383;-71
2022/08/16 07:22:21;;;;;;;13.35;10.60;;;22.70;99.90;;;;;;7336136;19;112731;-72
2022/08/16 07:25:11;;;;;;;13.60;10.65;;;22.80;99.90;;;;;;7341718;19;112982;-72
2022/08/16 07:27:40;;;;;;;16.05;10.68;;;22.90;99.90;;;;;;7333600;19;110913;-72
2022/08/16 07:30:10;;;;;;;15.77;11.15;;;23.00;99.90;;;;;;7337103;19;111924;-71
2022/08/16 07:32:58;;;;;;;14.95;9.90;;;23.10;99.90;;;;;;7336484;19;113360;-71
2022/08/16 07:35:29;;;;;;;13.10;9.52;;;23.10;99.90;;;;;;7336452;19;111380;-72
2022/08/16 07:38:03;;;;;;;12.10;10.15;;;23.20;99.90;;;;;;7339233;19;111129;-72
2022/08/16 07:40:30;;;;;;;12.57;9.18;;;23.30;99.90;;;;;;7335853;19;111891;-72
2022/08/16 07:43:17;;;;;;;11.45;9.00;;;23.30;99.90;;;;;;7339325;19;112385;-72
2022/08/16 07:45:46;;;;;;;9.98;8.93;;;23.40;99.90;;;;;;7338918;19;111962;-72
2022/08/16 07:48:19;;;;;;;11.20;9.48;;;23.40;99.90;;;;;;7341289;19;109703;-72
2022/08/16 07:50:47;;;;;;;13.50;8.85;;;23.60;99.90;;;;;;7337503;19;110445;-71
2022/08/16 07:53:25;;;;;;;11.55;9.40;;;23.60;99.90;;;;;;7336845;19;110013;-73
2022/08/16 07:55:55;;;;;;;11.05;9.40;;;23.70;99.90;;;;;;7336800;19;111020;-72
2022/08/16 07:58:22;;;;;;;12.07;8.93;;;23.90;99.90;;;;;;7335874;19;111947;-73
2022/08/16 08:01:05;;;;;;;9.68;8.32;;;23.90;99.90;;;;;;7333366;19;110560;-72
2022/08/16 08:03:39;;;;;;;;;;;24.00;99.90;;;;;;7332814;19;110472;-72
2022/08/16 08:06:13;;;;;;;10.73;8.02;;;24.00;99.90;;;;;;7327781;19;114435;-72
2022/08/16 08:08:41;;;;;;;9.63;7.35;;;24.10;99.90;;;;;;7332985;19;109916;-72
2022/08/16 08:11:18;;;;;;;12.73;8.07;;;24.10;99.90;;;;;;7337378;19;110014;-72
2022/08/16 08:13:48;;;;;;;10.45;8.68;;;24.20;99.90;;;;;;7333517;19;109683;-72
2022/08/16 08:16:18;;;;;;;9.40;8.07;;;24.30;99.90;;;;;;7329739;19;110743;-72
2022/08/16 08:18:48;;;;;;;10.60;7.18;;;24.40;99.90;;;;;;7333067;19;114339;-71
2022/08/16 08:21:39;;;;;;;7.68;6.82;;;24.60;99.90;;;;;;7326580;19;109781;-72
2022/08/16 08:24:26;;;;;;;10.40;7.38;;;24.70;99.90;;;;;;7331626;19;110468;-71
2022/08/16 08:27:00;;;;;;;14.55;7.38;;;24.90;99.90;;;;;;7337259;19;111546;-72
2022/08/16 08:29:30;;;;;;;11.02;6.93;;;25.00;99.90;;;;;;7334983;19;109702;-71
2022/08/16 08:32:06;;;;;;;9.02;6.55;;;25.10;99.90;;;;;;7340399;19;110862;-72
2022/08/16 08:34:55;;;;;;;14.98;6.75;;;25.20;99.90;;;;;;7330095;19;109493;-72
2022/08/16 08:37:30;;;;;;;9.38;5.95;;;25.30;99.90;;;;;;7338634;19;111290;-71
2022/08/16 08:40:17;;;;;;;;;;;25.30;99.90;;;;;;7335499;19;113624;-71
2022/08/16 08:42:51;;;;;;;10.07;6.25;;;25.40;99.90;;;;;;7339999;19;111624;-71
2022/08/16 08:45:27;;;;;;;11.05;5.80;;;25.50;99.90;;;;;;7335960;19;111646;-71
2022/08/16 08:48:16;;;;;;;9.48;5.57;;;25.70;99.90;;;;;;7337427;19;112797;-72
2022/08/16 08:51:06;;;;;;;11.65;5.53;;;25.80;99.90;;;;;;7336930;19;109497;-72
2022/08/16 08:53:35;;;;;;;17.20;5.55;;;25.90;99.90;;;;;;7338644;19;111298;-71
2022/08/16 08:56:05;;;;;;;7.20;4.60;;;26.00;99.50;;;;;;7340077;19;110563;-72
2022/08/16 08:58:51;;;;;;;8.98;4.30;;;26.10;99.60;;;;;;7337968;19;111073;-71
2022/08/16 09:01:29;;;;;;;9.77;3.80;;;26.20;98.90;;;;;;7336871;19;111166;-72
2022/08/16 09:04:04;;;;;;;9.05;4.30;;;26.30;98.90;;;;;;7334961;19;109652;-71
2022/08/16 09:06:33;;;;;;;7.45;4.47;;;26.40;98.70;;;;;;7336131;19;110388;-72
2022/08/16 09:09:00;;;;;;;9.98;5.05;;;26.70;98.20;;;;;;7337469;19;110146;-71
2022/08/16 09:11:27;;;;;;;11.82;4.53;;;26.70;98.20;;;;;;7333683;19;110743;-71
2022/08/16 09:14:07;;;;;;;6.70;4.50;;;26.80;98.40;;;;;;7335193;19;110548;-72
2022/08/16 09:16:50;;;;;;;9.27;4.38;;;26.90;97.90;;;;;;7335963;19;110818;-72
2022/08/16 09:19:38;;;;;;;14.18;4.22;;;27.00;97.80;;;;;;7341529;19;111409;-72
2022/08/16 09:22:08;;;;;;;8.82;3.95;;;27.10;97.30;;;;;;7336214;19;111200;-71
2022/08/16 09:24:47;;;;;;;6.38;3.50;;;27.20;97.00;;;;;;7331361;19;109825;-72
2022/08/16 09:27:20;;;;;;;4.38;3.15;;;27.20;97.00;;;;;;7336093;19;109910;-72
2022/08/16 09:29:51;;;;;;;7.78;3.00;;;27.30;96.60;;;;;;7335580;19;110073;-71
2022/08/16 09:32:32;;;;;;;7.93;3.33;;;27.50;96.20;;;;;;7334615;19;109970;-72
2022/08/16 09:35:00;;;;;;;11.00;3.35;;;27.60;96.00;;;;;;7335846;19;110766;-72
2022/08/16 09:37:29;;;;;;;5.82;3.05;;;27.70;95.70;;;;;;7335871;19;111008;-72
2022/08/16 09:40:05;;;;;;;8.20;2.90;;;27.80;94.70;;;;;;7336293;19;109487;-72
2022/08/16 09:42:54;;;;;;;3.58;2.78;;;27.80;94.50;;;;;;7340671;19;110202;-72
2022/08/16 09:45:26;;;;;;;8.10;3.00;;;27.90;94.70;;;;;;7335683;19;109136;-72
2022/08/16 09:47:54;;;;;;;4.60;2.58;;;27.90;94.30;;;;;;7336072;19;110417;-72
2022/08/16 09:50:28;;;;;;;6.63;2.70;;;28.00;94.40;;;;;;7334688;19;111170;-72
2022/08/16 09:53:11;;;;;;;4.68;2.50;;;28.10;94.10;;;;;;7335538;19;109800;-72
2022/08/16 09:55:45;;;;;;;4.97;2.83;;;28.20;94.00;;;;;;7335714;19;109315;-72
2022/08/16 09:58:22;;;;;;;10.43;2.65;;;28.30;93.60;;;;;;7332226;19;110429;-72
2022/08/16 10:01:09;;;;;;;5.18;2.47;;;28.40;92.90;;;;;;7334237;19;109667;-71
2022/08/16 10:03:37;;;;;;;5.13;2.40;;;28.40;92.50;;;;;;7332030;19;109760;-72
2022/08/16 10:06:26;;;;;;;;;;;28.40;92.60;;;;;;7340820;19;112942;-72
2022/08/16 10:09:02;;;;;;;5.60;2.55;;;28.40;92.30;;;;;;7339685;19;111070;-72
2022/08/16 10:14:37;;;;;;;6.18;1.98;;;28.60;91.50;;;;;;7335835;19;109378;-72
2022/08/16 10:17:05;;;;;;;6.00;2.53;;;28.70;91.40;;;;;;7331912;19;109843;-71
2022/08/16 10:19:32;;;;;;;8.95;2.22;;;28.70;91.20;;;;;;7332675;19;110611;-72
2022/08/16 10:21:59;;;;;;;6.10;2.45;;;28.80;90.60;;;;;;7333936;19;110667;-72
2022/08/16 10:24:32;;;;;;;4.53;2.25;;;28.80;90.00;;;;;;7328194;19;110703;-73
2022/08/16 10:26:59;;;;;;;8.85;2.85;;;28.80;90.30;;;;;;7332218;19;111169;-72
2022/08/16 10:29:46;;;;;;;10.43;2.58;;;28.90;90.20;;;;;;7335313;19;110745;-71
2022/08/16 10:32:28;;;;;;;7.43;2.17;;;29.00;88.80;;;;;;7333079;19;110746;-72
2022/08/16 10:34:59;;;;;;;3.22;2.03;;;28.90;88.30;;;;;;7333798;19;109143;-72
2022/08/16 10:37:28;;;;;;;3.45;2.35;;;28.90;88.00;;;;;;7330995;19;109841;-73
2022/08/16 10:40:08;;;;;;;7.22;2.17;;;28.90;87.10;;;;;;7332533;19;111359;-72
2022/08/16 10:42:57;;;;;;;5.18;2.47;;;28.80;87.00;;;;;;7334547;19;110082;-72
2022/08/16 10:45:50;;;;;;;10.98;2.30;;;28.80;86.40;;;;;;7338508;19;112532;-73
2022/08/16 10:48:27;;;;;;;4.82;2.53;;;28.70;85.50;;;;;;7339070;19;111974;-72
2022/08/16 10:50:57;;;;;;;8.98;2.42;;;28.60;87.00;;;;;;7343666;19;110639;-72
2022/08/16 10:53:30;;;;;;;7.43;2.50;;;28.50;87.60;;;;;;7340158;19;114509;-72
2022/08/16 10:56:04;;;;;;;6.78;2.78;;;28.40;87.90;;;;;;7330997;19;109876;-71
2022/08/16 10:58:51;;;;;;;7.72;2.38;;;28.30;88.20;;;;;;7336628;19;113271;-71
2022/08/16 11:01:18;;;;;;;3.42;2.30;;;28.30;88.10;;;;;;7337411;19;111102;-73
2022/08/16 11:04:06;;;;;;;5.65;2.67;;;28.20;88.70;;;;;;7339716;19;110170;-72
2022/08/16 11:06:53;;;;;;;7.25;2.30;;;28.20;89.70;;;;;;7341094;19;111981;-71
2022/08/16 11:09:40;;;;;;;7.18;2.80;;;28.30;89.80;;;;;;7338640;19;112762;-71
2022/08/16 11:12:11;;;;;;;7.35;3.05;;;28.30;89.50;;;;;;7336652;19;109326;-72
2022/08/16 11:14:40;;;;;;;14.85;3.20;;;28.20;89.10;;;;;;7345394;19;110601;-72
2022/08/16 11:17:27;;;;;;;;;;;28.30;89.10;;;;;;7338879;19;109967;-73
2022/08/16 11:19:58;;;;;;;6.85;2.70;;;28.30;88.80;;;;;;7337683;19;110226;-72
2022/08/16 11:22:47;;;;;;;6.07;2.70;;;28.40;90.00;;;;;;7339440;19;112769;-72
2022/08/16 11:25:21;;;;;;;11.20;3.50;;;28.60;89.80;;;;;;7338993;19;109311;-72
2022/08/16 11:28:09;;;;;;;8.90;2.70;;;28.70;89.50;;;;;;7337534;19;110298;-72
2022/08/16 11:30:37;;;;;;;5.65;2.65;;;28.90;89.30;;;;;;7340233;19;111760;-72
2022/08/16 11:33:06;;;;;;;4.53;2.60;;;29.10;88.90;;;;;;7337371;19;109674;-81
2022/08/16 11:35:34;;;;;;;7.05;2.65;;;29.30;89.00;;;;;;7339146;19;110497;-80
2022/08/16 11:38:13;;;;;;;10.93;3.00;;;29.60;88.40;;;;;;7343611;19;111396;-83
2022/08/16 11:41:01;;;;;;;7.93;2.50;;;29.80;87.20;;;;;;7340547;19;112503;-76
2022/08/16 11:43:34;;;;;;;53.45;4.35;;;30.00;86.50;;;;;;7338262;19;111170;-77
2022/08/16 11:46:06;;;;;;;6.45;3.10;;;30.20;86.30;;;;;;7335966;19;110025;-77
2022/08/16 11:48:53;;;;;;;9.68;2.75;;;30.40;86.50;;;;;;7337185;19;112408;-78
2022/08/16 11:51:20;;;;;;;7.57;2.72;;;30.50;86.60;;;;;;7336606;19;111489;-77
2022/08/16 11:53:47;;;;;;;10.77;2.88;;;30.60;86.40;;;;;;7334861;19;110301;-79
2022/08/16 11:56:15;;;;;;;6.40;3.50;;;30.80;86.40;;;;;;7333716;19;111626;-80
2022/08/16 11:58:54;;;;;;;7.28;3.67;;;30.90;86.20;;;;;;7329120;19;111950;-78
2022/08/16 12:01:22;;;;;;;8.80;3.33;;;31.00;85.30;;;;;;7340723;19;109969;-77
2022/08/16 12:04:10;;;;;;;8.60;3.03;;;31.10;85.40;;;;;;7335394;19;110541;-77
2022/08/16 12:06:39;;;;;;;6.32;3.10;;;31.30;84.90;;;;;;7340450;19;111963;-76
2022/08/16 12:09:06;;;;;;;9.32;2.95;;;31.40;82.60;;;;;;7337242;19;110980;-76
2022/08/16 12:11:35;;;;;;;6.60;2.70;;;31.40;80.80;;;;;;7339043;19;110223;-77
2022/08/16 12:14:06;;;;;;;6.80;2.90;;;31.60;80.80;;;;;;7335098;19;109525;-77
2022/08/16 12:16:34;;;;;;;7.88;2.72;;;31.70;81.10;;;;;;7335724;19;110916;-76
2022/08/16 12:19:04;;;;;;;5.22;2.90;;;31.80;81.20;;;;;;7336030;19;111447;-77
2022/08/16 12:21:32;;;;;;;4.38;2.90;;;31.90;80.00;;;;;;7336323;19;109605;-77
2022/08/16 12:24:20;;;;;;;7.97;3.03;;;32.00;80.50;;;;;;7342829;19;111886;-76
2022/08/16 12:26:49;;;;;;;6.35;2.83;;;32.00;78.70;;;;;;7334827;19;110417;-76
2022/08/16 12:29:18;;;;;;;6.90;2.90;;;32.00;78.40;;;;;;7336907;19;110550;-77
2022/08/16 12:31:47;;;;;;;8.02;3.00;;;32.00;78.80;;;;;;7336667;19;111175;-76
2022/08/16 12:34:35;;;;;;;4.75;2.70;;;32.10;78.00;;;;;;7336695;19;110063;-78
2022/08/16 12:37:04;;;;;;;7.22;2.92;;;32.20;78.00;;;;;;7333798;19;111984;-78
2022/08/16 12:40:00;;;;;;;4.97;3.30;;;32.30;78.10;;;;;;7336453;19;110198;-76
2022/08/16 12:42:31;;;;;;;4.18;3.28;;;32.40;78.00;;;;;;7334193;19;110050;-77
2022/08/16 12:45:08;;;;;;;9.55;3.30;;;32.40;77.80;;;;;;7334433;19;114661;-75
2022/08/16 12:50:40;;;;;;;4.40;3.13;;;32.50;76.00;;;;;;7337039;19;112677;-77
2022/08/16 12:53:16;;;;;;;4.88;2.90;;;32.50;76.20;;;;;;7336414;19;111243;-77
2022/08/16 12:55:43;;;;;;;7.38;3.22;;;32.60;76.90;;;;;;7334111;19;110671;-76
2022/08/16 12:58:12;;;;;;;5.53;3.13;;;32.70;76.60;;;;;;7331876;19;109470;-76
2022/08/16 13:01:00;;;;;;;5.82;3.10;;;32.80;75.70;;;;;;7336392;19;113941;-76
2022/08/16 13:03:27;;;;;;;3.17;2.88;;;32.90;75.40;;;;;;7335771;19;109441;-76
2022/08/16 13:05:58;;;;;;;4.07;3.38;;;33.00;76.10;;;;;;7337228;19;110835;-77
2022/08/16 13:08:26;;;;;;;13.27;3.28;;;33.10;75.50;;;;;;7338951;19;111566;-78
2022/08/16 13:10:57;;;;;;;7.78;3.20;;;33.10;74.60;;;;;;7336053;19;110725;-76
2022/08/16 13:13:25;;;;;;;10.75;3.50;;;33.10;73.90;;;;;;7336273;19;112183;-78